createdAt,value
2023-04-13T00:00:38.588Z,94072.00
2023-04-13T00:01:38.674Z,94074.00
2023-04-13T00:02:38.875Z,94074.00
2023-04-13T00:03:38.893Z,94072.00
2023-04-13T00:04:38.865Z,94074.00
2023-04-13T00:05:38.930Z,94072.00
2023-04-13T00:06:38.987Z,94074.00
2023-04-13T00:07:38.993Z,94076.00
2023-04-13T00:08:39.046Z,94074.00
2023-04-13T00:09:39.118Z,94074.00
2023-04-13T00:10:39.135Z,94070.00
2023-04-13T00:11:39.190Z,94070.00
2023-04-13T00:12:39.188Z,94074.00
2023-04-13T00:13:39.255Z,94074.00
2023-04-13T00:14:39.279Z,94074.00
2023-04-13T00:15:39.312Z,94076.00
2023-04-13T00:16:39.414Z,94076.00
2023-04-13T00:17:39.481Z,94076.00
2023-04-13T00:18:39.482Z,94076.00
2023-04-13T00:19:39.599Z,94074.00
2023-04-13T00:20:39.651Z,94072.00
2023-04-13T00:21:39.697Z,94076.00
2023-04-13T00:22:39.735Z,94072.00
2023-04-13T00:23:39.782Z,94074.00
2023-04-13T00:24:39.867Z,94074.00
2023-04-13T00:25:39.920Z,94072.00
2023-04-13T00:26:39.994Z,94076.00
2023-04-13T00:27:40.105Z,94072.00
2023-04-13T00:28:40.159Z,94072.00
2023-04-13T00:29:40.309Z,94072.00
2023-04-13T00:30:40.418Z,94068.00
2023-04-13T00:31:40.423Z,94068.00
2023-04-13T00:32:40.497Z,94066.00
2023-04-13T00:33:40.549Z,94066.00
2023-04-13T00:34:40.627Z,94064.00
2023-04-13T00:35:40.685Z,94064.00
2023-04-13T00:36:40.767Z,94064.00
2023-04-13T00:37:40.824Z,94064.00
2023-04-13T00:38:42.643Z,94062.00
2023-04-13T00:39:40.914Z,94061.00
2023-04-13T00:40:40.946Z,94062.00
2023-04-13T00:41:40.965Z,94061.00
2023-04-13T00:42:40.962Z,94057.00
2023-04-13T00:43:40.993Z,94059.00
2023-04-13T00:44:40.995Z,94057.00
2023-04-13T00:45:41.060Z,94057.00
2023-04-13T00:46:41.098Z,94059.00
2023-04-13T00:47:41.086Z,94057.00
2023-04-13T00:48:41.079Z,94059.00
2023-04-13T00:49:41.111Z,94057.00
2023-04-13T00:50:41.122Z,94055.00
2023-04-13T00:51:41.167Z,94055.00
2023-04-13T00:52:41.242Z,94055.00
2023-04-13T00:53:41.233Z,94051.00
2023-04-13T00:54:41.297Z,94053.00
2023-04-13T00:55:41.287Z,94051.00
2023-04-13T00:56:41.318Z,94055.00
2023-04-13T00:57:41.354Z,94053.00
2023-04-13T00:58:41.391Z,94057.00
2023-04-13T00:59:41.491Z,94055.00
2023-04-13T01:00:41.466Z,94061.00
2023-04-13T01:01:41.601Z,94062.00
2023-04-13T01:02:41.779Z,94062.00
2023-04-13T01:03:41.637Z,94062.00
2023-04-13T01:04:41.700Z,94070.00
2023-04-13T01:05:41.653Z,94072.00
2023-04-13T01:06:41.684Z,94074.00
2023-04-13T01:07:41.732Z,94078.00
2023-04-13T01:08:41.751Z,94080.00
2023-04-13T01:09:41.753Z,94082.00
2023-04-13T01:10:41.766Z,94080.00
2023-04-13T01:11:41.785Z,94086.00
2023-04-13T01:12:41.821Z,94086.00
2023-04-13T01:13:41.869Z,94084.00
2023-04-13T01:14:41.866Z,94084.00
2023-04-13T01:15:41.928Z,94084.00
2023-04-13T01:16:41.915Z,94082.00
2023-04-13T01:17:41.937Z,94082.00
2023-04-13T01:18:41.954Z,94082.00
2023-04-13T01:19:41.982Z,94084.00
2023-04-13T01:20:41.085Z,94084.00
2023-04-13T01:21:42.078Z,94084.00
2023-04-13T01:22:42.114Z,94086.00
2023-04-13T01:23:42.151Z,94088.00
2023-04-13T01:24:42.184Z,94092.00
2023-04-13T01:25:42.275Z,94098.00
2023-04-13T01:26:42.348Z,94098.00
2023-04-13T01:27:42.431Z,94100.00
2023-04-13T01:28:42.495Z,94104.00
2023-04-13T01:29:42.585Z,94100.00
2023-04-13T01:30:42.626Z,94100.00
2023-04-13T01:31:42.750Z,94100.00
2023-04-13T01:32:42.730Z,94096.00
2023-04-13T01:33:42.810Z,94088.00
2023-04-13T01:34:42.843Z,94086.00
2023-04-13T01:35:42.917Z,94088.00
2023-04-13T01:36:42.993Z,94090.00
2023-04-13T01:37:43.084Z,94094.00
2023-04-13T01:38:43.289Z,94098.00
2023-04-13T01:39:43.287Z,94100.00
2023-04-13T01:40:43.395Z,94102.00
2023-04-13T01:41:43.497Z,94106.00
2023-04-13T01:42:43.615Z,94108.00
2023-04-13T01:43:43.726Z,94109.00
2023-04-13T01:44:43.818Z,94113.00
2023-04-13T01:45:43.929Z,94113.00
2023-04-13T01:46:44.049Z,94115.00
2023-04-13T01:47:44.112Z,94119.00
2023-04-13T01:48:44.271Z,94117.00
2023-04-13T01:49:44.327Z,94119.00
2023-04-13T01:50:44.476Z,94115.00
2023-04-13T01:51:44.567Z,94121.00
2023-04-13T01:52:44.700Z,94119.00
2023-04-13T01:53:44.793Z,94119.00
2023-04-13T01:54:44.871Z,94115.00
2023-04-13T01:55:45.019Z,94119.00
2023-04-13T01:56:45.074Z,94131.00
2023-04-13T01:57:45.165Z,94137.00
2023-04-13T01:58:45.323Z,94141.00
2023-04-13T01:59:45.342Z,94141.00
2023-04-13T02:00:45.466Z,94135.00
2023-04-13T02:01:45.546Z,94137.00
2023-04-13T02:02:46.004Z,94145.00
2023-04-13T02:03:45.762Z,94154.00
2023-04-13T02:04:45.716Z,94156.00
2023-04-13T02:05:45.793Z,94154.00
2023-04-13T02:06:45.881Z,94147.00
2023-04-13T02:07:45.964Z,94149.00
2023-04-13T02:08:46.024Z,94154.00
2023-04-13T02:09:46.115Z,94154.00
2023-04-13T02:10:46.188Z,94166.00
2023-04-13T02:11:46.261Z,94164.00
2023-04-13T02:12:46.340Z,94147.00
2023-04-13T02:13:46.428Z,94153.00
2023-04-13T02:14:46.558Z,94139.00
2023-04-13T02:15:46.598Z,94141.00
2023-04-13T02:16:46.810Z,94154.00
2023-04-13T02:17:46.807Z,94164.00
2023-04-13T02:18:46.905Z,94162.00
2023-04-13T02:19:47.008Z,94154.00
2023-04-13T02:20:47.137Z,94162.00
2023-04-13T02:21:47.309Z,94168.00
2023-04-13T02:22:47.398Z,94162.00
2023-04-13T02:23:47.545Z,94180.00
2023-04-13T02:24:47.695Z,94176.00
2023-04-13T02:25:48.353Z,94180.00
2023-04-13T02:26:47.920Z,94186.00
2023-04-13T02:27:48.028Z,94180.00
2023-04-13T02:28:48.166Z,94184.00
2023-04-13T02:29:48.314Z,94192.00
2023-04-13T02:30:48.389Z,94184.00
2023-04-13T02:31:48.562Z,94186.00
2023-04-13T02:32:48.612Z,94182.00
2023-04-13T02:33:48.734Z,94168.00
2023-04-13T02:34:48.808Z,94168.00
2023-04-13T02:35:49.005Z,94172.00
2023-04-13T02:36:49.003Z,94162.00
2023-04-13T02:37:49.066Z,94166.00
2023-04-13T02:38:49.164Z,94174.00
2023-04-13T02:39:49.277Z,94160.00
2023-04-13T02:40:49.414Z,94143.00
2023-04-13T02:41:49.445Z,94139.00
2023-04-13T02:42:49.518Z,94143.00
2023-04-13T02:43:49.669Z,94156.00
2023-04-13T02:44:49.773Z,94164.00
2023-04-13T02:45:49.967Z,94153.00
2023-04-13T02:46:50.066Z,94153.00
2023-04-13T02:47:50.237Z,94162.00
2023-04-13T02:48:50.364Z,94160.00
2023-04-13T02:49:50.557Z,94166.00
2023-04-13T02:50:50.685Z,94174.00
2023-04-13T02:51:50.812Z,94174.00
2023-04-13T02:52:50.940Z,94180.00
2023-04-13T02:53:51.050Z,94178.00
2023-04-13T02:54:51.128Z,94180.00
2023-04-13T02:55:51.210Z,94180.00
2023-04-13T02:56:51.288Z,94176.00
2023-04-13T02:57:51.358Z,94178.00
2023-04-13T02:58:51.447Z,94180.00
2023-04-13T02:59:51.530Z,94182.00
2023-04-13T03:00:51.652Z,94184.00
2023-04-13T03:01:51.860Z,94194.00
2023-04-13T03:02:51.964Z,94198.00
2023-04-13T03:03:51.963Z,94196.00
2023-04-13T03:04:52.105Z,94194.00
2023-04-13T03:05:52.256Z,94196.00
2023-04-13T03:06:52.302Z,94198.00
2023-04-13T03:07:52.405Z,94200.00
2023-04-13T03:08:53.478Z,94200.00
2023-04-13T03:09:52.626Z,94200.00
2023-04-13T03:10:52.712Z,94202.00
2023-04-13T03:11:52.786Z,94202.00
2023-04-13T03:12:52.882Z,94206.00
2023-04-13T03:13:53.007Z,94202.00
2023-04-13T03:14:53.094Z,94202.00
2023-04-13T03:15:53.212Z,94196.00
2023-04-13T03:16:53.355Z,94174.00
2023-04-13T03:17:53.467Z,94164.00
2023-04-13T03:18:53.514Z,94164.00
2023-04-13T03:19:53.612Z,94158.00
2023-04-13T03:20:53.734Z,94164.00
2023-04-13T03:21:53.889Z,94168.00
2023-04-13T03:22:53.961Z,94182.00
2023-04-13T03:23:54.062Z,94184.00
2023-04-13T03:24:54.179Z,94192.00
2023-04-13T03:25:54.296Z,94192.00
2023-04-13T03:26:54.401Z,94190.00
2023-04-13T03:27:54.538Z,94188.00
2023-04-13T03:28:54.656Z,94180.00
2023-04-13T03:29:54.758Z,94176.00
2023-04-13T03:30:54.924Z,94186.00
2023-04-13T03:31:55.037Z,94184.00
2023-04-13T03:32:55.204Z,94188.00
2023-04-13T03:33:55.256Z,94184.00
2023-04-13T03:34:55.375Z,94186.00
2023-04-13T03:35:55.556Z,94186.00
2023-04-13T03:36:55.682Z,94180.00
2023-04-13T03:37:55.751Z,94182.00
2023-04-13T03:38:55.882Z,94182.00
2023-04-13T03:39:56.012Z,94182.00
2023-04-13T03:40:56.167Z,94188.00
2023-04-13T03:41:56.282Z,94190.00
2023-04-13T03:42:56.396Z,94194.00
2023-04-13T03:43:56.911Z,94200.00
2023-04-13T03:44:56.590Z,94200.00
2023-04-13T03:45:56.769Z,94198.00
2023-04-13T03:46:56.785Z,94196.00
2023-04-13T03:47:56.942Z,94198.00
2023-04-13T03:48:57.016Z,94202.00
2023-04-13T03:49:57.115Z,94198.00
2023-04-13T03:50:57.275Z,94196.00
2023-04-13T03:51:57.311Z,94192.00
2023-04-13T03:52:57.456Z,94186.00
2023-04-13T03:53:57.761Z,94186.00
2023-04-13T03:54:57.718Z,94182.00
2023-04-13T03:55:57.727Z,94182.00
2023-04-13T03:56:57.821Z,94186.00
2023-04-13T03:57:57.944Z,94196.00
2023-04-13T03:58:58.052Z,94196.00
2023-04-13T03:59:58.128Z,94200.00
2023-04-13T04:00:58.254Z,94192.00
2023-04-13T04:01:58.410Z,94196.00
2023-04-13T04:02:58.553Z,94194.00
2023-04-13T04:03:58.936Z,94194.00
2023-04-13T04:04:58.802Z,94196.00
2023-04-13T04:05:58.881Z,94202.00
2023-04-13T04:06:59.004Z,94204.00
2023-04-13T04:07:59.144Z,94206.00
2023-04-13T04:08:59.263Z,94204.00
2023-04-13T04:09:59.328Z,94204.00
2023-04-13T04:10:59.409Z,94202.00
2023-04-13T04:11:59.483Z,94204.00
2023-04-13T04:12:59.595Z,94204.00
2023-04-13T04:13:59.859Z,94204.00
2023-04-13T04:14:59.835Z,94208.00
2023-04-13T04:15:59.997Z,94213.00
2023-04-13T04:17:00.051Z,94213.00
2023-04-13T04:18:00.276Z,94215.00
2023-04-13T04:19:00.241Z,94217.00
2023-04-13T04:20:00.353Z,94215.00
2023-04-13T04:21:00.472Z,94219.00
2023-04-13T04:22:00.576Z,94229.00
2023-04-13T04:23:00.690Z,94233.00
2023-04-13T04:24:00.869Z,94235.00
2023-04-13T04:25:01.022Z,94237.00
2023-04-13T04:26:01.023Z,94243.00
2023-04-13T04:27:01.122Z,94245.00
2023-04-13T04:28:01.224Z,94243.00
2023-04-13T04:29:01.312Z,94245.00
2023-04-13T04:30:01.393Z,94247.00
2023-04-13T04:31:01.485Z,94248.00
2023-04-13T04:32:01.651Z,94250.00
2023-04-13T04:33:01.673Z,94247.00
2023-04-13T04:34:01.705Z,94248.00
2023-04-13T04:35:01.774Z,94252.00
2023-04-13T04:36:01.995Z,94256.00
2023-04-13T04:37:03.478Z,94262.00
2023-04-13T04:38:01.976Z,94258.00
2023-04-13T04:39:02.220Z,94260.00
2023-04-13T04:40:02.105Z,94258.00
2023-04-13T04:41:02.276Z,94254.00
2023-04-13T04:42:02.250Z,94254.00
2023-04-13T04:43:02.278Z,94254.00
2023-04-13T04:44:02.371Z,94256.00
2023-04-13T04:45:02.428Z,94248.00
2023-04-13T04:46:02.583Z,94254.00
2023-04-13T04:47:02.584Z,94250.00
2023-04-13T04:48:02.780Z,94247.00
2023-04-13T04:49:02.763Z,94247.00
2023-04-13T04:50:02.849Z,94250.00
2023-04-13T04:51:02.933Z,94252.00
2023-04-13T04:52:03.010Z,94260.00
2023-04-13T04:53:03.071Z,94262.00
2023-04-13T04:54:03.137Z,94264.00
2023-04-13T04:55:03.263Z,94264.00
2023-04-13T04:56:03.345Z,94264.00
2023-04-13T04:57:03.465Z,94268.00
2023-04-13T04:58:03.554Z,94268.00
2023-04-13T04:59:03.666Z,94270.00
2023-04-13T05:00:03.741Z,94274.00
2023-04-13T05:01:03.918Z,94272.00
2023-04-13T05:02:04.034Z,94274.00
2023-04-13T05:03:04.105Z,94280.00
2023-04-13T05:04:04.179Z,94278.00
2023-04-13T05:05:04.288Z,94280.00
2023-04-13T05:06:04.404Z,94280.00
2023-04-13T05:07:04.506Z,94280.00
2023-04-13T05:08:04.606Z,94284.00
2023-04-13T05:09:04.737Z,94286.00
2023-04-13T05:10:04.828Z,94292.00
2023-04-13T05:11:04.943Z,94288.00
2023-04-13T05:12:05.099Z,94292.00
2023-04-13T05:13:05.202Z,94296.00
2023-04-13T05:14:05.335Z,94294.00
2023-04-13T05:15:05.443Z,94298.00
2023-04-13T05:16:05.580Z,94313.00
2023-04-13T05:17:05.639Z,94300.00
2023-04-13T05:18:05.790Z,94305.00
2023-04-13T05:19:05.823Z,94303.00
2023-04-13T05:20:05.973Z,94307.00
2023-04-13T05:21:06.097Z,94305.00
2023-04-13T05:22:06.200Z,94311.00
2023-04-13T05:23:06.293Z,94311.00
2023-04-13T05:24:06.384Z,94311.00
2023-04-13T05:25:06.869Z,94313.00
2023-04-13T05:26:07.716Z,94315.00
2023-04-13T05:27:15.262Z,94321.00
2023-04-13T05:28:10.643Z,94321.00
2023-04-13T05:29:08.915Z,94321.00
2023-04-13T05:30:07.317Z,94321.00
2023-04-13T05:31:07.497Z,94327.00
2023-04-13T05:32:07.594Z,94325.00
2023-04-13T05:33:07.193Z,94325.00
2023-04-13T05:34:08.723Z,94325.00
2023-04-13T05:35:09.080Z,94331.00
2023-04-13T05:36:08.216Z,94331.00
2023-04-13T05:37:08.269Z,94331.00
2023-04-13T05:38:09.073Z,94331.00
2023-04-13T05:39:12.170Z,94331.00
2023-04-13T05:40:08.157Z,94329.00
2023-04-13T05:41:08.738Z,94331.00
2023-04-13T05:42:08.304Z,94331.00
2023-04-13T05:43:08.412Z,94335.00
2023-04-13T05:44:09.128Z,94331.00
2023-04-13T05:45:08.570Z,94337.00
2023-04-13T05:46:08.766Z,94339.00
2023-04-13T05:47:08.742Z,94339.00
2023-04-13T05:48:09.126Z,94343.00
2023-04-13T05:49:09.212Z,94347.00
2023-04-13T05:50:11.183Z,94345.00
2023-04-13T05:51:09.460Z,94345.00
2023-04-13T05:52:11.099Z,94349.00
2023-04-13T05:53:09.413Z,94350.00
2023-04-13T05:54:09.403Z,94352.00
2023-04-13T05:55:09.590Z,94352.00
2023-04-13T05:56:09.542Z,94354.00
2023-04-13T05:57:11.207Z,94352.00
2023-04-13T05:58:09.877Z,94356.00
2023-04-13T05:59:09.899Z,94358.00
2023-04-13T06:00:10.552Z,94360.00
2023-04-13T06:01:17.453Z,94360.00
2023-04-13T06:02:10.275Z,94362.00
2023-04-13T06:03:10.449Z,94362.00
2023-04-13T06:04:27.104Z,94360.00
2023-04-13T06:05:10.337Z,94360.00
2023-04-13T06:06:17.843Z,94362.00
2023-04-13T06:08:10.972Z,94364.00
2023-04-13T06:09:18.257Z,94370.00
2023-04-13T06:10:10.644Z,94368.00
2023-04-13T06:11:19.347Z,94366.00
2023-04-13T06:12:11.104Z,94366.00
2023-04-13T06:13:10.864Z,94368.00
2023-04-13T06:14:14.162Z,94368.00
2023-04-13T06:15:11.076Z,94368.00
2023-04-13T06:16:13.278Z,94372.00
2023-04-13T06:17:12.335Z,94378.00
2023-04-13T06:18:11.373Z,94374.00
2023-04-13T06:19:11.197Z,94374.00
2023-04-13T06:20:11.328Z,94378.00
2023-04-13T06:21:10.362Z,94376.00
2023-04-13T06:22:27.430Z,94372.00
2023-04-13T06:23:11.481Z,94370.00
2023-04-13T06:24:13.327Z,94370.00
2023-04-13T06:25:11.599Z,94372.00
2023-04-13T06:26:11.704Z,94372.00
2023-04-13T06:27:12.534Z,94374.00
2023-04-13T06:28:12.683Z,94374.00
2023-04-13T06:29:10.801Z,94372.00
2023-04-13T06:30:11.941Z,94372.00
2023-04-13T06:31:13.819Z,94366.00
2023-04-13T06:32:12.234Z,94362.00
2023-04-13T06:33:12.308Z,94366.00
2023-04-13T06:34:13.735Z,94362.00
2023-04-13T06:35:12.921Z,94362.00
2023-04-13T06:36:13.264Z,94368.00
2023-04-13T06:37:12.572Z,94370.00
2023-04-13T06:38:12.700Z,94372.00
2023-04-13T06:39:12.789Z,94376.00
2023-04-13T06:40:13.213Z,94376.00
2023-04-13T06:41:12.988Z,94374.00
2023-04-13T06:42:13.079Z,94370.00
2023-04-13T06:43:26.249Z,94372.00
2023-04-13T06:44:15.077Z,94366.00
2023-04-13T06:45:13.341Z,94364.00
2023-04-13T06:46:14.629Z,94362.00
2023-04-13T06:47:13.751Z,94360.00
2023-04-13T06:48:13.989Z,94368.00
2023-04-13T06:49:14.243Z,94366.00
2023-04-13T06:50:14.366Z,94364.00
2023-04-13T06:51:13.919Z,94364.00
2023-04-13T06:52:17.200Z,94360.00
2023-04-13T06:53:14.238Z,94366.00
2023-04-13T06:54:14.455Z,94356.00
2023-04-13T06:55:14.220Z,94352.00
2023-04-13T06:56:14.511Z,94352.00
2023-04-13T06:57:14.749Z,94350.00
2023-04-13T06:58:22.133Z,94350.00
2023-04-13T06:59:14.557Z,94354.00
2023-04-13T07:00:28.189Z,94354.00
2023-04-13T07:01:14.758Z,94354.00
2023-04-13T07:02:17.142Z,94356.00
2023-04-13T07:03:15.994Z,94354.00
2023-04-13T07:04:15.973Z,94347.00
2023-04-13T07:05:15.218Z,94352.00
2023-04-13T07:06:15.100Z,94350.00
2023-04-13T07:07:15.266Z,94349.00
2023-04-13T07:08:15.279Z,94349.00
2023-04-13T07:09:15.407Z,94354.00
2023-04-13T07:10:15.514Z,94352.00
2023-04-13T07:11:15.695Z,94354.00
2023-04-13T07:12:19.461Z,94352.00
2023-04-13T07:13:16.080Z,94347.00
2023-04-13T07:14:15.987Z,94352.00
2023-04-13T07:15:17.232Z,94354.00
2023-04-13T07:16:16.310Z,94352.00
2023-04-13T07:17:16.360Z,94349.00
2023-04-13T07:18:17.373Z,94350.00
2023-04-13T07:19:16.842Z,94347.00
2023-04-13T07:20:16.839Z,94347.00
2023-04-13T07:21:16.833Z,94350.00
2023-04-13T07:22:17.927Z,94341.00
2023-04-13T07:23:16.891Z,94341.00
2023-04-13T07:24:16.993Z,94339.00
2023-04-13T07:25:17.225Z,94333.00
2023-04-13T07:26:17.663Z,94335.00
2023-04-13T07:27:22.434Z,94335.00
2023-04-13T07:28:19.005Z,94331.00
2023-04-13T07:29:17.908Z,94337.00
2023-04-13T07:30:18.271Z,94331.00
2023-04-13T07:31:19.625Z,94331.00
2023-04-13T07:32:20.873Z,94329.00
2023-04-13T07:33:17.943Z,94329.00
2023-04-13T07:34:17.099Z,94333.00
2023-04-13T07:35:19.087Z,94331.00
2023-04-13T07:36:20.185Z,94337.00
2023-04-13T07:37:27.240Z,94333.00
2023-04-13T07:38:20.172Z,94333.00
2023-04-13T07:39:21.210Z,94331.00
2023-04-13T07:40:18.516Z,94325.00
2023-04-13T07:41:24.909Z,94323.00
2023-04-13T07:42:20.140Z,94321.00
2023-04-13T07:43:20.769Z,94319.00
2023-04-13T07:44:23.565Z,94323.00
2023-04-13T07:45:20.924Z,94321.00
2023-04-13T07:46:27.365Z,94325.00
2023-04-13T07:47:25.978Z,94325.00
2023-04-13T07:48:20.008Z,94335.00
2023-04-13T07:49:19.005Z,94331.00
2023-04-13T07:50:19.538Z,94341.00
2023-04-13T07:51:24.386Z,94339.00
2023-04-13T07:52:21.930Z,94333.00
2023-04-13T07:53:19.489Z,94337.00
2023-04-13T07:54:21.726Z,94331.00
2023-04-13T07:55:19.994Z,94335.00
2023-04-13T07:56:20.680Z,94335.00
2023-04-13T07:57:27.975Z,94335.00
2023-04-13T07:58:20.287Z,94337.00
2023-04-13T07:59:22.510Z,94339.00
2023-04-13T08:00:20.749Z,94339.00
2023-04-13T08:01:21.524Z,94356.00
2023-04-13T08:02:21.392Z,94343.00
2023-04-13T08:03:20.438Z,94345.00
2023-04-13T08:04:21.357Z,94349.00
2023-04-13T08:05:22.403Z,94343.00
2023-04-13T08:06:22.014Z,94347.00
2023-04-13T08:07:21.622Z,94343.00
2023-04-13T08:08:22.797Z,94347.00
2023-04-13T08:09:22.336Z,94341.00
2023-04-13T08:10:22.014Z,94349.00
2023-04-13T08:11:22.807Z,94345.00
2023-04-13T08:12:22.934Z,94343.00
2023-04-13T08:13:26.566Z,94341.00
2023-04-13T08:14:22.522Z,94347.00
2023-04-13T08:15:22.571Z,94345.00
2023-04-13T08:16:25.778Z,94345.00
2023-04-13T08:17:24.017Z,94347.00
2023-04-13T08:18:24.723Z,94343.00
2023-04-13T08:19:23.717Z,94343.00
2023-04-13T08:20:25.229Z,94345.00
2023-04-13T08:21:23.019Z,94343.00
2023-04-13T08:22:30.743Z,94343.00
2023-04-13T08:23:24.380Z,94337.00
2023-04-13T08:24:24.454Z,94341.00
2023-04-13T08:25:31.319Z,94339.00
2023-04-13T08:26:27.502Z,94335.00
2023-04-13T08:27:23.884Z,94333.00
2023-04-13T08:28:24.485Z,94331.00
2023-04-13T08:29:26.412Z,94323.00
2023-04-13T08:30:26.743Z,94329.00
2023-04-13T08:31:24.705Z,94325.00
2023-04-13T08:32:24.912Z,94323.00
2023-04-13T08:33:24.479Z,94323.00
2023-04-13T08:34:24.647Z,94325.00
2023-04-13T08:35:24.731Z,94319.00
2023-04-13T08:36:24.897Z,94325.00
2023-04-13T08:37:25.351Z,94323.00
2023-04-13T08:38:25.490Z,94323.00
2023-04-13T08:39:25.004Z,94325.00
2023-04-13T08:40:26.898Z,94323.00
2023-04-13T08:41:25.194Z,94315.00
2023-04-13T08:42:27.041Z,94317.00
2023-04-13T08:43:25.359Z,94317.00
2023-04-13T08:44:25.451Z,94313.00
2023-04-13T08:45:25.551Z,94311.00
2023-04-13T08:46:25.811Z,94313.00
2023-04-13T08:47:26.577Z,94317.00
2023-04-13T08:48:25.946Z,94315.00
2023-04-13T08:49:25.891Z,94321.00
2023-04-13T08:50:25.955Z,94315.00
2023-04-13T08:51:26.030Z,94311.00
2023-04-13T08:52:26.857Z,94313.00
2023-04-13T08:53:26.246Z,94309.00
2023-04-13T08:54:27.770Z,94307.00
2023-04-13T08:55:26.415Z,94302.00
2023-04-13T08:56:38.416Z,94303.00
2023-04-13T08:57:27.011Z,94302.00
2023-04-13T08:58:27.265Z,94303.00
2023-04-13T08:59:26.754Z,94302.00
2023-04-13T09:00:27.177Z,94303.00
2023-04-13T09:01:31.588Z,94302.00
2023-04-13T09:02:29.283Z,94298.00
2023-04-13T09:03:27.502Z,94298.00
2023-04-13T09:04:29.502Z,94296.00
2023-04-13T09:05:29.145Z,94300.00
2023-04-13T09:06:30.274Z,94298.00
2023-04-13T09:07:32.350Z,94294.00
2023-04-13T09:08:30.747Z,94292.00
2023-04-13T09:09:32.872Z,94298.00
2023-04-13T09:10:32.336Z,94292.00
2023-04-13T09:11:29.925Z,94292.00
2023-04-13T09:12:27.738Z,94294.00
2023-04-13T09:13:27.714Z,94292.00
2023-04-13T09:14:27.773Z,94288.00
2023-04-13T09:15:31.612Z,94288.00
2023-04-13T09:16:27.919Z,94286.00
2023-04-13T09:17:29.417Z,94284.00
2023-04-13T09:18:27.008Z,94286.00
2023-04-13T09:19:28.125Z,94288.00
2023-04-13T09:20:28.246Z,94286.00
2023-04-13T09:21:28.173Z,94288.00
2023-04-13T09:22:28.242Z,94286.00
2023-04-13T09:23:28.797Z,94286.00
2023-04-13T09:24:28.313Z,94290.00
2023-04-13T09:25:28.381Z,94284.00
2023-04-13T09:26:28.406Z,94286.00
2023-04-13T09:27:28.765Z,94280.00
2023-04-13T09:28:28.518Z,94284.00
2023-04-13T09:29:28.564Z,94280.00
2023-04-13T09:30:28.751Z,94278.00
2023-04-13T09:31:29.087Z,94284.00
2023-04-13T09:32:29.299Z,94276.00
2023-04-13T09:33:31.824Z,94272.00
2023-04-13T09:34:29.841Z,94270.00
2023-04-13T09:35:31.151Z,94262.00
2023-04-13T09:36:52.777Z,94262.00
2023-04-13T09:37:59.501Z,94258.00
2023-04-13T09:38:48.573Z,94258.00
2023-04-13T09:39:49.025Z,94256.00
2023-04-13T09:40:49.572Z,94252.00
2023-04-13T09:41:49.535Z,94254.00
2023-04-13T09:42:49.124Z,94250.00
2023-04-13T09:43:50.989Z,94248.00
2023-04-13T09:44:51.553Z,94250.00
2023-04-13T09:45:48.685Z,94243.00
2023-04-13T09:46:48.940Z,94250.00
2023-04-13T09:47:49.039Z,94243.00
2023-04-13T09:48:50.254Z,94239.00
2023-04-13T09:49:48.609Z,94235.00
2023-04-13T09:50:48.583Z,94233.00
2023-04-13T09:51:48.723Z,94235.00
2023-04-13T09:52:49.578Z,94231.00
2023-04-13T09:53:48.506Z,94227.00
2023-04-13T09:54:48.920Z,94233.00
2023-04-13T09:55:48.697Z,94231.00
2023-04-13T09:56:50.460Z,94223.00
2023-04-13T09:57:48.705Z,94229.00
2023-04-13T09:58:49.099Z,94229.00
2023-04-13T09:59:48.769Z,94221.00
2023-04-13T10:00:48.750Z,94217.00
2023-04-13T10:01:48.851Z,94217.00
2023-04-13T10:02:49.200Z,94213.00
2023-04-13T10:03:49.120Z,94217.00
2023-04-13T10:04:48.906Z,94213.00
2023-04-13T10:06:48.343Z,94213.00
2023-04-13T10:07:49.680Z,94221.00
2023-04-13T10:08:48.885Z,94215.00
2023-04-13T10:09:48.926Z,94213.00
2023-04-13T10:10:49.633Z,94213.00
2023-04-13T10:11:49.527Z,94211.00
2023-04-13T10:12:48.960Z,94215.00
2023-04-13T10:13:49.088Z,94209.00
2023-04-13T10:14:50.642Z,94211.00
2023-04-13T10:15:51.981Z,94211.00
2023-04-13T10:16:49.109Z,94213.00
2023-04-13T10:17:49.141Z,94215.00
2023-04-13T10:18:49.073Z,94209.00
2023-04-13T10:19:49.085Z,94217.00
2023-04-13T10:20:49.586Z,94219.00
2023-04-13T10:21:50.337Z,94215.00
2023-04-13T10:22:49.584Z,94213.00
2023-04-13T10:23:49.065Z,94217.00
2023-04-13T10:24:49.091Z,94217.00
2023-04-13T10:25:50.201Z,94211.00
2023-04-13T10:26:49.509Z,94213.00
2023-04-13T10:27:50.166Z,94217.00
2023-04-13T10:28:49.582Z,94215.00
2023-04-13T10:29:50.090Z,94221.00
2023-04-13T10:30:49.723Z,94215.00
2023-04-13T10:31:49.853Z,94219.00
2023-04-13T10:32:49.869Z,94219.00
2023-04-13T10:33:50.078Z,94211.00
2023-04-13T10:34:50.100Z,94215.00
2023-04-13T10:35:49.981Z,94211.00
2023-04-13T10:36:50.031Z,94211.00
2023-04-13T10:37:50.576Z,94209.00
2023-04-13T10:38:50.152Z,94206.00
2023-04-13T10:39:50.232Z,94204.00
2023-04-13T10:40:50.273Z,94202.00
2023-04-13T10:41:51.348Z,94202.00
2023-04-13T10:42:53.105Z,94208.00
2023-04-13T10:43:50.626Z,94198.00
2023-04-13T10:44:50.594Z,94198.00
2023-04-13T10:45:50.553Z,94198.00
2023-04-13T10:46:50.626Z,94200.00
2023-04-13T10:47:51.174Z,94198.00
2023-04-13T10:48:50.681Z,94192.00
2023-04-13T10:49:51.078Z,94194.00
2023-04-13T10:50:50.776Z,94190.00
2023-04-13T10:51:51.816Z,94180.00
2023-04-13T10:52:50.876Z,94182.00
2023-04-13T10:53:51.077Z,94174.00
2023-04-13T10:54:50.966Z,94178.00
2023-04-13T10:55:50.997Z,94178.00
2023-04-13T10:56:51.027Z,94178.00
2023-04-13T10:57:51.072Z,94176.00
2023-04-13T10:58:51.079Z,94172.00
2023-04-13T10:59:57.031Z,94172.00
2023-04-13T11:00:51.092Z,94166.00
2023-04-13T11:01:51.156Z,94172.00
2023-04-13T11:02:51.684Z,94172.00
2023-04-13T11:04:03.725Z,94172.00
2023-04-13T11:04:51.276Z,94178.00
2023-04-13T11:05:51.589Z,94176.00
2023-04-13T11:06:51.199Z,94180.00
2023-04-13T11:07:55.082Z,94182.00
2023-04-13T11:08:51.266Z,94190.00
2023-04-13T11:09:51.338Z,94190.00
2023-04-13T11:10:52.001Z,94190.00
2023-04-13T11:11:52.045Z,94194.00
2023-04-13T11:12:51.624Z,94188.00
2023-04-13T11:13:51.536Z,94194.00
2023-04-13T11:14:51.554Z,94194.00
2023-04-13T11:15:51.598Z,94192.00
2023-04-13T11:16:58.381Z,94188.00
2023-04-13T11:17:51.636Z,94186.00
2023-04-13T11:18:51.639Z,94196.00
2023-04-13T11:19:51.664Z,94190.00
2023-04-13T11:20:51.681Z,94194.00
2023-04-13T11:21:52.111Z,94196.00
2023-04-13T11:22:52.083Z,94202.00
2023-04-13T11:23:51.791Z,94200.00
2023-04-13T11:24:52.084Z,94202.00
2023-04-13T11:25:51.869Z,94206.00
2023-04-13T11:26:51.876Z,94208.00
2023-04-13T11:27:52.084Z,94206.00
2023-04-13T11:28:52.010Z,94204.00
2023-04-13T11:29:52.026Z,94202.00
2023-04-13T11:30:52.043Z,94209.00
2023-04-13T11:31:52.149Z,94211.00
2023-04-13T11:32:52.133Z,94213.00
2023-04-13T11:33:52.162Z,94211.00
2023-04-13T11:34:52.584Z,94211.00
2023-04-13T11:35:52.240Z,94209.00
2023-04-13T11:36:52.288Z,94211.00
2023-04-13T11:37:52.617Z,94211.00
2023-04-13T11:38:52.377Z,94219.00
2023-04-13T11:39:52.415Z,94206.00
2023-04-13T11:40:58.861Z,94206.00
2023-04-13T11:41:52.503Z,94211.00
2023-04-13T11:42:52.544Z,94215.00
2023-04-13T11:43:52.586Z,94219.00
2023-04-13T11:44:52.838Z,94219.00
2023-04-13T11:45:52.827Z,94223.00
2023-04-13T11:46:53.212Z,94219.00
2023-04-13T11:47:52.977Z,94233.00